Time;durP1;ratioP1;P1;durP2;ratioP2;P2;SDS_P1;SDS_P2;PMS_P1;PMS_P2;Temp;Humidity;BMP_temperature;BMP_pressure;BME280_temperature;BME280_humidity;BME280_pressure;Samples;Min_cycle;Max_cycle;Signal;HPM_P1;HPM_P2
2023/05/25 00:00:11;;;;;;;11.50;4.13;;;13.70;99.90;;;;;;5075483;28;20151;-75
2023/05/25 00:02:38;;;;;;;12.40;3.80;;;13.60;99.90;;;;;;5075150;28;20190;-74
2023/05/25 00:05:07;;;;;;;7.97;3.67;;;13.60;99.90;;;;;;5073859;28;20181;-75
2023/05/25 00:07:32;;;;;;;7.50;3.47;;;13.60;99.90;;;;;;5074966;28;20171;-74
2023/05/25 00:09:58;;;;;;;11.20;4.20;;;13.60;99.90;;;;;;5075374;28;20631;-76
2023/05/25 00:12:24;;;;;;;8.27;4.13;;;13.60;99.90;;;;;;5075164;28;20152;-76
2023/05/25 00:14:49;;;;;;;8.73;4.57;;;13.60;99.90;;;;;;5075007;28;20220;-76
2023/05/25 00:17:17;;;;;;;7.63;3.90;;;13.60;99.90;;;;;;5075292;28;20232;-75
2023/05/25 00:19:43;;;;;;;14.33;4.60;;;13.50;99.90;;;;;;5075266;28;20177;-76
2023/05/25 00:22:09;;;;;;;13.10;5.10;;;13.50;99.90;;;;;;5075094;28;20159;-76
2023/05/25 00:24:35;;;;;;;11.77;4.40;;;13.50;99.90;;;;;;5075264;28;20171;-76
2023/05/25 00:27:02;;;;;;;9.80;3.90;;;13.40;99.90;;;;;;5075184;28;20187;-76
2023/05/25 00:29:28;;;;;;;12.43;4.67;;;13.30;99.90;;;;;;5073957;28;20186;-76
2023/05/25 00:31:53;;;;;;;9.00;4.27;;;13.30;99.90;;;;;;5074007;28;20241;-75
2023/05/25 00:34:19;;;;;;;10.07;4.13;;;13.40;99.90;;;;;;5074877;28;20152;-75
2023/05/25 00:36:48;;;;;;;8.53;4.00;;;13.30;99.90;;;;;;5073265;28;20604;-75
2023/05/25 00:39:17;;;;;;;10.80;4.20;;;13.30;99.90;;;;;;5073836;28;20160;-75
2023/05/25 00:41:44;;;;;;;12.60;4.57;;;13.20;99.90;;;;;;5075121;28;20187;-75
2023/05/25 00:44:13;;;;;;;10.17;4.30;;;13.20;99.90;;;;;;5074843;28;20597;-75
2023/05/25 00:46:45;;;;;;;12.30;4.40;;;13.10;99.90;;;;;;5072984;28;20167;-75
2023/05/25 00:49:14;;;;;;;10.40;4.77;;;13.10;99.90;;;;;;5074905;28;20183;-75
2023/05/25 00:51:41;;;;;;;10.37;4.30;;;13.10;99.90;;;;;;5072942;28;20181;-76
2023/05/25 00:54:06;;;;;;;13.73;5.03;;;13.20;99.90;;;;;;5073318;28;20616;-75
2023/05/25 00:56:37;;;;;;;11.50;4.33;;;13.10;99.90;;;;;;5074342;28;20223;-75
2023/05/25 00:59:06;;;;;;;10.63;4.43;;;13.10;99.90;;;;;;5074656;28;20158;-75
2023/05/25 01:01:38;;;;;;;12.20;4.43;;;13.10;99.90;;;;;;5074301;28;20174;-76
2023/05/25 01:04:07;;;;;;;11.63;5.03;;;13.00;99.90;;;;;;5074344;28;20178;-75
2023/05/25 01:06:33;;;;;;;12.47;4.97;;;13.00;99.90;;;;;;5072732;28;20184;-75
2023/05/25 01:09:03;;;;;;;10.93;4.47;;;13.00;99.90;;;;;;5073893;28;20258;-75
2023/05/25 01:11:35;;;;;;;10.77;4.17;;;12.90;99.90;;;;;;5074323;28;20171;-75
2023/05/25 01:14:01;;;;;;;12.83;4.87;;;12.80;99.90;;;;;;5074039;28;20179;-75
2023/05/25 01:16:28;;;;;;;11.10;5.03;;;12.80;99.90;;;;;;5074256;28;20184;-75
2023/05/25 01:18:54;;;;;;;18.23;5.50;;;12.80;99.90;;;;;;5072750;28;20207;-75
2023/05/25 01:21:44;;;;;;;10.03;4.70;;;12.90;99.90;;;;;;5072587;28;20170;-75
2023/05/25 01:24:25;;;;;;;9.50;4.43;;;12.80;99.90;;;;;;5074215;28;20174;-75
2023/05/25 01:27:00;;;;;;;10.87;4.80;;;12.70;99.90;;;;;;5073967;28;20182;-75
2023/05/25 01:29:28;;;;;;;14.83;6.00;;;12.80;99.90;;;;;;5074223;28;20216;-75
2023/05/25 01:31:56;;;;;;;11.57;5.00;;;12.80;99.90;;;;;;5074124;28;20612;-75
2023/05/25 01:34:23;;;;;;;9.73;4.53;;;12.80;99.90;;;;;;5074177;28;20564;-76
2023/05/25 01:36:49;;;;;;;12.90;5.10;;;12.80;99.90;;;;;;5073585;28;20548;-75
2023/05/25 01:39:15;;;;;;;14.70;4.97;;;12.80;99.90;;;;;;5072228;28;20170;-74
2023/05/25 01:41:41;;;;;;;12.63;4.67;;;12.90;99.90;;;;;;5073649;28;20162;-75
2023/05/25 01:44:07;;;;;;;15.77;4.97;;;12.90;99.90;;;;;;5074881;28;20572;-76
2023/05/25 01:46:40;;;;;;;11.10;5.00;;;12.80;99.90;;;;;;5074028;28;20152;-75
2023/05/25 01:49:18;;;;;;;10.27;4.90;;;12.80;99.90;;;;;;5072057;28;20166;-75
2023/05/25 01:51:54;;;;;;;10.20;5.03;;;12.80;99.90;;;;;;5073368;28;20166;-75
2023/05/25 01:54:27;;;;;;;14.57;5.20;;;12.70;99.90;;;;;;5073551;28;20166;-76
2023/05/25 01:57:00;;;;;;;13.27;5.33;;;12.70;99.90;;;;;;5073096;28;20230;-76
2023/05/25 01:59:27;;;;;;;12.27;5.00;;;12.60;99.90;;;;;;5072667;28;20176;-76
2023/05/25 02:01:54;;;;;;;14.63;5.00;;;12.50;99.90;;;;;;5073316;28;20152;-76
2023/05/25 02:04:21;;;;;;;15.50;5.30;;;12.40;99.90;;;;;;5071724;28;20186;-77
2023/05/25 02:06:51;;;;;;;13.63;5.13;;;12.40;99.90;;;;;;5073033;28;20218;-78
2023/05/25 02:09:17;;;;;;;12.70;5.67;;;12.50;99.90;;;;;;5073008;28;20186;-75
2023/05/25 02:11:44;;;;;;;16.30;4.93;;;12.50;99.90;;;;;;5072955;28;20171;-76
2023/05/25 02:14:10;;;;;;;13.70;5.20;;;12.50;99.90;;;;;;5073125;28;20159;-77
2023/05/25 02:16:35;;;;;;;15.17;5.50;;;12.40;99.90;;;;;;5071690;28;20193;-77
2023/05/25 02:19:02;;;;;;;11.43;5.67;;;12.50;99.90;;;;;;5073187;28;20170;-76
2023/05/25 02:21:28;;;;;;;17.27;5.93;;;12.50;99.90;;;;;;5073368;28;20185;-76
2023/05/25 02:23:53;;;;;;;15.43;5.00;;;12.40;99.90;;;;;;5072745;28;20232;-77
2023/05/25 02:26:20;;;;;;;14.03;5.50;;;12.30;99.90;;;;;;5072237;28;20199;-76
2023/05/25 02:28:46;;;;;;;14.73;5.50;;;12.30;99.90;;;;;;5072205;28;20155;-76
2023/05/25 02:31:11;;;;;;;12.20;4.40;;;12.20;99.90;;;;;;5072474;28;20633;-76
2023/05/25 02:33:38;;;;;;;14.37;4.90;;;12.20;99.90;;;;;;5072190;28;20219;-76
2023/05/25 02:36:05;;;;;;;13.80;5.03;;;12.20;99.90;;;;;;5070919;28;20258;-75
2023/05/25 02:38:31;;;;;;;10.83;5.50;;;12.10;99.90;;;;;;5072611;28;20155;-75
2023/05/25 02:40:57;;;;;;;13.63;6.23;;;12.20;99.90;;;;;;5072836;28;20182;-73
2023/05/25 02:43:22;;;;;;;11.13;5.53;;;12.10;99.90;;;;;;5072120;28;20158;-75
2023/05/25 02:45:49;;;;;;;11.83;4.93;;;12.10;99.90;;;;;;5071274;28;20629;-75
2023/05/25 02:48:15;;;;;;;12.07;6.00;;;12.10;99.90;;;;;;5072671;28;20163;-75
2023/05/25 02:50:40;;;;;;;13.83;5.73;;;12.00;99.90;;;;;;5072804;28;20169;-75
2023/05/25 02:53:08;;;;;;;15.27;6.17;;;11.90;99.90;;;;;;5071986;28;20183;-75
2023/05/25 02:55:39;;;;;;;15.63;5.67;;;12.00;99.90;;;;;;5071893;28;20258;-75
2023/05/25 02:58:05;;;;;;;17.13;5.67;;;12.00;99.90;;;;;;5073829;28;20162;-74
2023/05/25 03:00:31;;;;;;;14.97;6.00;;;12.00;99.90;;;;;;5073464;28;20153;-74
2023/05/25 03:02:57;;;;;;;15.63;5.60;;;11.90;99.90;;;;;;5073230;28;20630;-74
2023/05/25 03:05:23;;;;;;;17.17;5.97;;;12.00;99.90;;;;;;5072380;28;20252;-74
2023/05/25 03:07:49;;;;;;;13.97;6.27;;;11.90;99.90;;;;;;5072518;28;20506;-74
2023/05/25 03:10:16;;;;;;;15.83;5.40;;;11.90;99.90;;;;;;5075184;28;20342;-75
2023/05/25 03:12:41;;;;;;;14.83;6.50;;;11.90;99.90;;;;;;5076400;28;20174;-74
2023/05/25 03:15:11;;;;;;;17.80;6.50;;;11.90;99.90;;;;;;5076380;28;20249;-75
2023/05/25 03:17:38;;;;;;;14.97;5.97;;;11.90;99.90;;;;;;5076660;28;20198;-74
2023/05/25 03:20:05;;;;;;;16.13;6.30;;;12.00;99.90;;;;;;5076382;28;20181;-75
2023/05/25 03:22:30;;;;;;;16.93;6.17;;;12.00;99.90;;;;;;5076574;28;20163;-75
2023/05/25 03:24:58;;;;;;;12.23;6.17;;;12.10;99.90;;;;;;5076334;28;20227;-75
2023/05/25 03:27:25;;;;;;;17.03;6.83;;;12.10;99.90;;;;;;5075226;28;20166;-75
2023/05/25 03:29:50;;;;;;;16.63;5.83;;;12.00;99.90;;;;;;5076361;28;20538;-75
2023/05/25 03:32:16;;;;;;;14.83;6.03;;;12.00;99.90;;;;;;5076269;28;20169;-74
2023/05/25 03:34:43;;;;;;;14.47;6.17;;;11.90;99.90;;;;;;5076059;28;20207;-74
2023/05/25 03:37:09;;;;;;;10.90;5.47;;;12.00;99.90;;;;;;5076360;28;20273;-75
2023/05/25 03:39:35;;;;;;;19.47;6.30;;;11.90;99.90;;;;;;5075992;28;20299;-77
2023/05/25 03:42:01;;;;;;;14.73;6.20;;;11.90;99.90;;;;;;5075830;28;20154;-76
2023/05/25 03:44:27;;;;;;;18.20;6.50;;;11.80;99.90;;;;;;5075748;28;20169;-76
2023/05/25 03:46:54;;;;;;;17.70;7.03;;;11.90;99.90;;;;;;5075611;28;20258;-74
2023/05/25 03:49:19;;;;;;;16.57;6.53;;;11.80;99.90;;;;;;5075816;28;20150;-75
2023/05/25 03:51:45;;;;;;;14.90;6.57;;;11.80;99.90;;;;;;5075863;28;20181;-75
2023/05/25 03:54:11;;;;;;;13.20;6.37;;;11.70;99.90;;;;;;5074507;28;20164;-75
2023/05/25 03:56:36;;;;;;;15.27;6.20;;;11.70;99.90;;;;;;5075349;28;20279;-75
2023/05/25 03:59:03;;;;;;;17.53;7.33;;;11.70;99.90;;;;;;5075489;28;20155;-75
2023/05/25 04:01:28;;;;;;;13.27;6.10;;;11.70;99.90;;;;;;5075791;28;20155;-75
2023/05/25 04:03:55;;;;;;;15.97;6.73;;;11.70;99.90;;;;;;5074203;28;20177;-75
2023/05/25 04:06:24;;;;;;;16.33;6.40;;;11.80;99.90;;;;;;5075688;28;20149;-74
2023/05/25 04:08:51;;;;;;;17.17;6.40;;;11.70;99.90;;;;;;5074331;28;20181;-75
2023/05/25 04:11:17;;;;;;;17.10;6.43;;;11.70;99.90;;;;;;5075391;28;20234;-75
2023/05/25 04:13:45;;;;;;;14.10;6.37;;;11.70;99.90;;;;;;5075398;28;20154;-75
2023/05/25 04:16:11;;;;;;;16.67;6.53;;;11.70;99.90;;;;;;5074950;28;20217;-75
2023/05/25 04:18:38;;;;;;;18.20;6.40;;;11.70;99.90;;;;;;5075310;28;20524;-75
2023/05/25 04:21:04;;;;;;;17.03;7.10;;;11.70;99.90;;;;;;5075030;28;20169;-75
2023/05/25 04:23:32;;;;;;;14.00;7.20;;;11.70;99.90;;;;;;5073591;28;20638;-75
2023/05/25 04:25:58;;;;;;;17.37;6.63;;;11.80;99.90;;;;;;5073417;28;20664;-75
2023/05/25 04:28:24;;;;;;;14.87;6.93;;;11.80;99.90;;;;;;5074712;28;20169;-74
2023/05/25 04:30:55;;;;;;;17.93;6.23;;;11.90;99.90;;;;;;5073867;28;20252;-75
2023/05/25 04:33:22;;;;;;;13.03;6.10;;;11.80;99.90;;;;;;5074879;28;20165;-75
2023/05/25 04:35:50;;;;;;;16.53;7.07;;;11.80;99.90;;;;;;5074659;28;20158;-75
2023/05/25 04:38:16;;;;;;;14.00;6.70;;;11.80;99.90;;;;;;5073627;28;20257;-76
2023/05/25 04:40:42;;;;;;;14.87;7.00;;;11.80;99.90;;;;;;5074763;28;20232;-77
2023/05/25 04:43:10;;;;;;;14.30;5.67;;;11.80;99.90;;;;;;5073217;28;20170;-76
2023/05/25 04:45:35;;;;;;;19.57;6.17;;;11.80;99.90;;;;;;5073412;28;20178;-76
2023/05/25 04:48:01;;;;;;;17.47;6.60;;;11.80;99.90;;;;;;5074792;28;20177;-76
2023/05/25 04:50:27;;;;;;;17.50;6.40;;;11.90;99.90;;;;;;5073404;28;20194;-76
2023/05/25 04:52:54;;;;;;;15.87;6.63;;;12.00;99.90;;;;;;5073370;28;20171;-76
2023/05/25 04:55:20;;;;;;;14.03;6.53;;;12.10;99.90;;;;;;5073473;28;20534;-76
2023/05/25 04:57:45;;;;;;;16.83;7.10;;;12.10;99.90;;;;;;5073442;28;20194;-74
2023/05/25 05:00:14;;;;;;;16.30;6.53;;;12.10;99.90;;;;;;5075125;28;20155;-76
2023/05/25 05:02:40;;;;;;;17.27;6.53;;;12.10;99.90;;;;;;5074873;28;20238;-76
2023/05/25 05:05:06;;;;;;;17.23;6.47;;;12.10;99.90;;;;;;5073569;28;20212;-76
2023/05/25 05:07:34;;;;;;;16.53;6.90;;;12.00;99.90;;;;;;5074454;28;20529;-76
2023/05/25 05:09:59;;;;;;;14.30;7.23;;;12.00;99.90;;;;;;5074349;28;20697;-75
2023/05/25 05:12:25;;;;;;;12.27;6.40;;;12.00;99.90;;;;;;5074330;28;20257;-75
2023/05/25 05:14:52;;;;;;;17.23;7.00;;;12.20;99.90;;;;;;5073143;28;20658;-77
2023/05/25 05:17:17;;;;;;;17.87;6.13;;;12.20;99.90;;;;;;5072511;28;20206;-74
2023/05/25 05:19:43;;;;;;;14.93;6.50;;;12.30;99.90;;;;;;5072746;28;20189;-74
2023/05/25 05:22:09;;;;;;;13.47;6.37;;;12.30;99.90;;;;;;5073952;28;20173;-75
2023/05/25 05:24:35;;;;;;;14.07;6.87;;;12.30;99.90;;;;;;5072522;28;20264;-75
2023/05/25 05:27:02;;;;;;;14.47;6.63;;;12.30;99.90;;;;;;5073305;28;20716;-74
2023/05/25 05:29:28;;;;;;;14.10;7.00;;;12.30;99.90;;;;;;5073789;28;20215;-73
2023/05/25 05:31:56;;;;;;;10.07;5.67;;;12.40;99.90;;;;;;5073040;28;20178;-73
2023/05/25 05:34:22;;;;;;;13.97;6.27;;;12.60;99.90;;;;;;5073719;28;20172;-74
2023/05/25 05:36:47;;;;;;;15.43;6.37;;;12.60;99.90;;;;;;5073610;28;20207;-74
2023/05/25 05:39:13;;;;;;;14.53;6.43;;;12.60;99.90;;;;;;5073674;28;20238;-74
2023/05/25 05:41:42;;;;;;;17.87;6.57;;;12.60;99.90;;;;;;5073300;28;20174;-74
2023/05/25 05:44:08;;;;;;;17.37;6.80;;;12.50;99.90;;;;;;5072232;28;20266;-73
2023/05/25 05:46:33;;;;;;;20.23;7.00;;;12.60;99.90;;;;;;5072005;28;20198;-74
2023/05/25 05:48:59;;;;;;;13.93;6.17;;;12.60;99.90;;;;;;5072070;28;20172;-75
2023/05/25 05:51:26;;;;;;;14.53;7.00;;;12.70;99.90;;;;;;5073618;28;20536;-75
2023/05/25 05:53:52;;;;;;;13.03;6.60;;;12.90;99.90;;;;;;5072033;28;20171;-73
2023/05/25 05:56:18;;;;;;;11.40;5.67;;;13.00;99.90;;;;;;5073042;28;20659;-74
2023/05/25 05:58:44;;;;;;;16.87;6.90;;;13.00;99.90;;;;;;5073325;28;20174;-75
2023/05/25 06:01:11;;;;;;;12.73;6.20;;;13.10;99.90;;;;;;5073576;28;20158;-74
2023/05/25 06:03:36;;;;;;;16.37;6.50;;;13.00;99.90;;;;;;5071991;28;20528;-75
2023/05/25 06:06:03;;;;;;;16.43;6.27;;;13.10;99.90;;;;;;5071828;28;20162;-74
2023/05/25 06:08:28;;;;;;;12.53;6.83;;;13.30;99.90;;;;;;5072965;28;20193;-75
2023/05/25 06:10:54;;;;;;;15.27;5.40;;;13.40;99.90;;;;;;5071747;28;20166;-74
2023/05/25 06:13:20;;;;;;;12.87;5.53;;;13.30;99.90;;;;;;5071531;28;20174;-73
2023/05/25 06:15:46;;;;;;;16.53;6.63;;;13.20;99.90;;;;;;5073281;28;20175;-75
2023/05/25 06:18:11;;;;;;;18.37;5.97;;;13.20;99.90;;;;;;5073022;28;20146;-75
2023/05/25 06:20:38;;;;;;;14.17;5.90;;;13.30;99.90;;;;;;5073159;28;20566;-75
2023/05/25 06:23:04;;;;;;;11.40;5.30;;;13.30;99.90;;;;;;5073446;28;20160;-75
2023/05/25 06:25:29;;;;;;;17.00;5.93;;;13.40;99.90;;;;;;5072673;28;20182;-74
2023/05/25 06:27:56;;;;;;;16.67;7.37;;;13.50;99.90;;;;;;5071358;28;20179;-74
2023/05/25 06:30:21;;;;;;;12.47;5.13;;;13.50;99.90;;;;;;5071256;28;20163;-74
2023/05/25 06:32:48;;;;;;;18.00;6.17;;;13.50;99.90;;;;;;5072941;28;20160;-73
2023/05/25 06:35:18;;;;;;;13.33;6.20;;;13.60;99.90;;;;;;5071616;28;20174;-75
2023/05/25 06:37:45;;;;;;;9.43;5.20;;;13.60;99.90;;;;;;5071260;28;20655;-74
2023/05/25 06:40:11;;;;;;;13.17;6.00;;;13.80;99.90;;;;;;5072840;28;20171;-73
2023/05/25 06:42:36;;;;;;;17.83;5.70;;;13.80;99.90;;;;;;5072384;28;20171;-74
2023/05/25 06:45:03;;;;;;;10.47;5.80;;;13.80;99.90;;;;;;5071164;28;20167;-74
2023/05/25 06:47:29;;;;;;;13.37;5.47;;;13.90;99.90;;;;;;5071333;28;20174;-74
2023/05/25 06:49:55;;;;;;;13.03;5.10;;;13.90;99.90;;;;;;5071732;28;20629;-74
2023/05/25 06:52:21;;;;;;;15.27;5.43;;;14.00;99.90;;;;;;5072530;28;20167;-74
2023/05/25 06:54:46;;;;;;;12.97;5.77;;;14.00;99.90;;;;;;5071243;28;20167;-74
2023/05/25 06:57:12;;;;;;;13.60;4.97;;;14.00;99.90;;;;;;5072740;28;20229;-74
2023/05/25 06:59:39;;;;;;;13.47;5.03;;;13.90;99.90;;;;;;5072634;28;20159;-74
2023/05/25 07:02:06;;;;;;;13.17;5.40;;;14.00;99.90;;;;;;5071519;28;20201;-74
2023/05/25 07:04:33;;;;;;;12.87;4.90;;;14.10;99.90;;;;;;5072849;28;20558;-73
2023/05/25 07:06:59;;;;;;;13.30;4.70;;;14.10;99.90;;;;;;5072635;28;20170;-75
2023/05/25 07:09:25;;;;;;;13.43;5.30;;;14.20;99.90;;;;;;5070855;28;20178;-74
2023/05/25 07:11:51;;;;;;;12.77;5.30;;;14.40;99.90;;;;;;5071850;28;20167;-74
2023/05/25 07:14:17;;;;;;;12.37;4.57;;;14.60;99.90;;;;;;5071216;28;20171;-75
2023/05/25 07:16:45;;;;;;;16.33;4.73;;;14.60;99.90;;;;;;5071268;28;20180;-74
2023/05/25 07:19:10;;;;;;;10.27;4.90;;;14.60;99.90;;;;;;5072282;28;20213;-74
2023/05/25 07:21:37;;;;;;;13.47;4.77;;;14.60;99.90;;;;;;5072371;28;20322;-73
2023/05/25 07:24:03;;;;;;;9.83;5.13;;;14.70;99.90;;;;;;5070916;28;20595;-74
2023/05/25 07:26:33;;;;;;;11.00;4.43;;;14.80;99.90;;;;;;5072636;28;20217;-74
2023/05/25 07:28:59;;;;;;;12.47;4.70;;;14.90;99.90;;;;;;5072190;28;20174;-73
2023/05/25 07:31:27;;;;;;;12.63;5.23;;;14.90;99.90;;;;;;5072605;28;20147;-73
2023/05/25 07:33:54;;;;;;;11.40;4.50;;;15.00;99.90;;;;;;5071188;28;20507;-73
2023/05/25 07:36:23;;;;;;;14.50;3.93;;;15.00;99.90;;;;;;5072181;28;20180;-75
2023/05/25 07:38:49;;;;;;;12.60;4.27;;;15.10;99.90;;;;;;5070779;28;20178;-74
2023/05/25 07:41:15;;;;;;;9.53;4.40;;;15.40;99.90;;;;;;5070699;28;20155;-75
2023/05/25 07:43:41;;;;;;;9.33;4.17;;;15.50;99.90;;;;;;5070990;28;20156;-74
2023/05/25 07:46:08;;;;;;;13.37;3.50;;;15.60;99.90;;;;;;5072188;28;20160;-74
2023/05/25 07:48:33;;;;;;;17.60;4.23;;;15.70;99.90;;;;;;5072201;28;20246;-74
2023/05/25 07:50:59;;;;;;;10.63;3.67;;;15.70;99.90;;;;;;5072300;28;20199;-73
2023/05/25 07:53:24;;;;;;;13.93;4.50;;;15.90;99.90;;;;;;5071310;28;20159;-75
2023/05/25 07:55:50;;;;;;;13.73;4.10;;;15.80;99.90;;;;;;5075742;28;20179;-74
2023/05/25 07:58:16;;;;;;;8.93;3.83;;;15.90;99.90;;;;;;5076065;28;20171;-73
2023/05/25 08:00:42;;;;;;;8.73;3.40;;;15.90;99.90;;;;;;5074354;28;20160;-73
2023/05/25 08:03:08;;;;;;;11.23;4.23;;;15.90;99.90;;;;;;5075913;28;20209;-74
2023/05/25 08:05:34;;;;;;;8.50;3.63;;;15.90;99.90;;;;;;5074019;28;20167;-74
2023/05/25 08:07:59;;;;;;;8.90;3.33;;;16.10;99.90;;;;;;5075882;28;20632;-75
2023/05/25 08:10:31;;;;;;;9.43;3.80;;;16.10;99.90;;;;;;5075879;28;20160;-73
2023/05/25 08:12:57;;;;;;;10.30;3.63;;;16.20;99.90;;;;;;5076201;28;20159;-75
2023/05/25 08:15:24;;;;;;;12.70;3.97;;;16.40;99.90;;;;;;5074218;28;20577;-74
2023/05/25 08:17:49;;;;;;;10.40;3.90;;;16.50;99.90;;;;;;5075250;28;20199;-75
2023/05/25 08:20:16;;;;;;;10.60;3.63;;;16.50;99.90;;;;;;5074996;28;20157;-75
2023/05/25 08:22:42;;;;;;;9.47;3.97;;;16.60;99.90;;;;;;5075726;28;20156;-74
2023/05/25 08:25:08;;;;;;;9.90;4.00;;;16.70;99.90;;;;;;5075663;28;20232;-74
2023/05/25 08:27:34;;;;;;;11.37;4.23;;;16.80;99.90;;;;;;5074078;28;20188;-74
2023/05/25 08:30:00;;;;;;;9.67;3.57;;;16.90;99.90;;;;;;5075055;28;20152;-74
2023/05/25 08:32:26;;;;;;;12.03;3.93;;;17.10;99.90;;;;;;5073916;28;20199;-74
2023/05/25 08:34:51;;;;;;;13.43;4.10;;;16.90;99.90;;;;;;5074976;28;20614;-75
2023/05/25 08:37:18;;;;;;;16.13;4.27;;;16.70;99.90;;;;;;5075119;28;20201;-73
2023/05/25 08:39:44;;;;;;;9.43;4.00;;;16.60;99.90;;;;;;5075021;28;20574;-74
2023/05/25 08:42:10;;;;;;;8.53;4.00;;;16.40;99.90;;;;;;5075022;28;20153;-73
2023/05/25 08:44:36;;;;;;;9.03;3.47;;;16.50;99.90;;;;;;5074827;28;20157;-73
2023/05/25 08:47:06;;;;;;;14.20;4.23;;;16.60;99.90;;;;;;5075166;28;20177;-76
2023/05/25 08:49:36;;;;;;;13.70;4.23;;;16.80;99.90;;;;;;5074744;28;20167;-76
2023/05/25 08:52:02;;;;;;;12.93;3.70;;;17.00;99.90;;;;;;5074674;28;20180;-77
2023/05/25 08:54:34;;;;;;;9.27;3.97;;;17.30;99.90;;;;;;5074608;28;20157;-77
2023/05/25 08:57:19;;;;;;;11.73;3.87;;;17.50;99.90;;;;;;5074551;28;20201;-76
2023/05/25 08:59:59;;;;;;;12.77;3.87;;;17.50;99.90;;;;;;5074605;28;20185;-77
2023/05/25 09:02:49;;;;;;;12.00;4.23;;;17.70;99.90;;;;;;5074652;28;20187;-76
2023/05/25 09:05:15;;;;;;;12.73;3.87;;;17.70;99.90;;;;;;5074254;28;20171;-77
2023/05/25 09:07:42;;;;;;;11.10;4.03;;;17.60;99.90;;;;;;5073708;28;20185;-76
2023/05/25 09:10:10;;;;;;;11.77;3.87;;;17.80;99.90;;;;;;5074348;28;20256;-76
2023/05/25 09:12:36;;;;;;;15.47;4.17;;;18.00;99.90;;;;;;5074362;28;20164;-75
2023/05/25 09:15:02;;;;;;;11.93;4.10;;;18.30;99.90;;;;;;5072855;28;20179;-76
2023/05/25 09:17:28;;;;;;;8.73;3.40;;;18.50;99.90;;;;;;5073965;28;20216;-77
2023/05/25 09:19:54;;;;;;;9.77;3.90;;;18.50;99.90;;;;;;5074150;28;20157;-76
2023/05/25 09:22:19;;;;;;;10.90;3.77;;;18.40;99.90;;;;;;5073178;28;20208;-76
2023/05/25 09:24:45;;;;;;;7.07;3.30;;;18.10;99.90;;;;;;5072705;28;20176;-77
2023/05/25 09:27:18;;;;;;;10.00;4.07;;;17.80;99.90;;;;;;5074129;28;20218;-76
2023/05/25 09:29:47;;;;;;;10.30;3.60;;;18.10;99.90;;;;;;5073813;28;20543;-77
2023/05/25 09:32:15;;;;;;;11.17;3.80;;;18.20;99.90;;;;;;5072418;28;20181;-77
2023/05/25 09:34:47;;;;;;;9.47;3.87;;;18.40;99.90;;;;;;5072568;28;20210;-77
2023/05/25 09:37:15;;;;;;;6.60;3.10;;;18.20;99.90;;;;;;5073866;28;20225;-76
2023/05/25 09:39:42;;;;;;;12.20;3.83;;;18.30;99.90;;;;;;5073811;28;20164;-77
2023/05/25 09:42:11;;;;;;;12.57;4.10;;;18.40;99.90;;;;;;5073548;28;20170;-76
2023/05/25 09:44:39;;;;;;;12.03;4.10;;;18.30;99.90;;;;;;5073703;28;20162;-76
2023/05/25 09:47:05;;;;;;;14.90;3.97;;;18.30;99.90;;;;;;5073269;28;20565;-77
2023/05/25 09:49:30;;;;;;;10.23;3.43;;;18.50;99.90;;;;;;5073665;28;20526;-77
2023/05/25 09:51:56;;;;;;;8.70;3.13;;;18.80;99.90;;;;;;5072123;28;20174;-77
2023/05/25 09:54:22;;;;;;;10.80;3.67;;;18.90;99.90;;;;;;5072178;28;20260;-77
2023/05/25 09:56:48;;;;;;;8.13;3.33;;;19.00;99.90;;;;;;5073117;28;20262;-76
2023/05/25 09:59:14;;;;;;;10.53;3.20;;;19.20;99.90;;;;;;5073880;28;20217;-76
2023/05/25 10:01:40;;;;;;;10.30;3.20;;;19.00;99.90;;;;;;5073193;28;20177;-77
2023/05/25 10:04:06;;;;;;;7.90;3.40;;;18.70;99.90;;;;;;5072018;28;20180;-76
2023/05/25 10:06:32;;;;;;;6.80;2.83;;;18.70;99.90;;;;;;5071775;28;20177;-77
2023/05/25 10:09:00;;;;;;;6.27;3.10;;;19.00;99.90;;;;;;5071769;28;20177;-77
2023/05/25 10:11:28;;;;;;;9.27;3.63;;;19.30;99.90;;;;;;5072895;28;20261;-77
2023/05/25 10:13:54;;;;;;;6.30;3.07;;;19.30;99.50;;;;;;5073183;28;20202;-77
2023/05/25 10:16:25;;;;;;;10.20;3.60;;;19.40;99.40;;;;;;5072855;28;20520;-77
2023/05/25 10:19:00;;;;;;;9.90;3.30;;;19.40;99.40;;;;;;5072612;28;20174;-76
2023/05/25 10:21:27;;;;;;;5.87;2.87;;;19.30;99.40;;;;;;5072821;28;20189;-76
2023/05/25 10:23:56;;;;;;;5.33;2.43;;;19.10;99.40;;;;;;5071720;28;20160;-77
2023/05/25 10:26:26;;;;;;;6.93;3.37;;;19.10;99.70;;;;;;5071553;28;20235;-76
2023/05/25 10:29:00;;;;;;;8.63;2.77;;;19.30;99.30;;;;;;5071900;28;20522;-76
2023/05/25 10:31:28;;;;;;;12.07;3.90;;;19.50;99.50;;;;;;5072549;28;20171;-73
2023/05/25 10:33:55;;;;;;;6.67;2.90;;;19.50;98.50;;;;;;5071407;28;20171;-75
2023/05/25 10:36:21;;;;;;;5.37;2.63;;;19.80;98.60;;;;;;5071523;28;20191;-74
2023/05/25 10:38:50;;;;;;;5.67;2.67;;;20.10;98.20;;;;;;5071362;28;20174;-74
2023/05/25 10:41:18;;;;;;;5.63;2.10;;;20.30;98.30;;;;;;5072660;28;20621;-74
2023/05/25 10:43:44;;;;;;;5.17;2.10;;;20.30;96.80;;;;;;5070980;28;20170;-74
2023/05/25 10:46:11;;;;;;;7.87;2.87;;;20.40;96.60;;;;;;5071155;28;20597;-73
2023/05/25 10:48:37;;;;;;;7.40;2.87;;;20.40;96.70;;;;;;5072746;28;20624;-74
2023/05/25 10:51:03;;;;;;;6.27;3.40;;;20.50;97.30;;;;;;5072954;28;20171;-74
2023/05/25 10:53:30;;;;;;;8.07;2.90;;;20.50;96.90;;;;;;5072937;28;20156;-74
2023/05/25 10:55:58;;;;;;;7.30;2.93;;;20.40;96.60;;;;;;5071766;28;20185;-74
2023/05/25 10:58:27;;;;;;;8.40;2.93;;;20.30;97.00;;;;;;5073202;28;20528;-74
2023/05/25 11:01:07;;;;;;;7.40;2.77;;;20.00;96.70;;;;;;5071103;28;20175;-74
2023/05/25 11:04:09;;;;;;;6.80;2.80;;;19.90;97.90;;;;;;5072749;28;20608;-74
2023/05/25 11:06:42;;;;;;;9.87;3.47;;;20.10;97.60;;;;;;5073000;28;20259;-74
2023/05/25 11:09:26;;;;;;;5.17;2.77;;;20.20;97.10;;;;;;5072946;28;20199;-74
2023/05/25 11:11:54;;;;;;;9.77;3.10;;;20.10;97.30;;;;;;5071570;28;20550;-74
2023/05/25 11:14:30;;;;;;;9.07;3.10;;;20.20;97.20;;;;;;5072221;28;20635;-74
2023/05/25 11:17:09;;;;;;;6.80;2.77;;;20.40;96.60;;;;;;5072406;28;20187;-74
2023/05/25 11:19:46;;;;;;;8.10;2.70;;;20.70;96.70;;;;;;5072317;28;20138;-74
2023/05/25 11:22:19;;;;;;;7.77;2.77;;;20.90;96.40;;;;;;5071988;28;20163;-74
2023/05/25 11:24:51;;;;;;;7.40;2.73;;;21.00;96.00;;;;;;5072243;28;20179;-74
2023/05/25 11:27:44;;;;;;;8.60;2.57;;;21.00;95.80;;;;;;5072279;28;20554;-74
2023/05/25 11:30:10;;;;;;;5.90;2.73;;;21.10;95.10;;;;;;5074239;28;20664;-74
2023/05/25 11:32:38;;;;;;;8.10;3.30;;;21.10;95.50;;;;;;5075051;28;20258;-74
2023/05/25 11:35:08;;;;;;;6.67;2.53;;;21.30;95.10;;;;;;5076282;28;20152;-74
2023/05/25 11:37:33;;;;;;;4.90;2.70;;;21.60;94.60;;;;;;5075119;28;20266;-74
2023/05/25 11:40:05;;;;;;;5.33;2.40;;;21.50;94.60;;;;;;5076522;28;20193;-74
2023/05/25 11:42:31;;;;;;;4.10;2.20;;;22.40;94.30;;;;;;5076245;28;20158;-74
2023/05/25 11:45:01;;;;;;;6.73;3.00;;;22.50;93.80;;;;;;5075954;28;20167;-74
2023/05/25 11:47:28;;;;;;;7.53;3.23;;;22.80;93.50;;;;;;5074470;28;20183;-74
2023/05/25 11:49:55;;;;;;;7.97;2.97;;;22.80;93.10;;;;;;5074321;28;20303;-73
2023/05/25 11:52:22;;;;;;;5.07;2.80;;;23.10;92.90;;;;;;5075932;28;20292;-74
2023/05/25 11:54:47;;;;;;;10.77;4.07;;;22.70;92.90;;;;;;5075333;28;20171;-73
2023/05/25 11:57:23;;;;;;;6.77;2.93;;;22.50;92.90;;;;;;5073981;28;20253;-73
2023/05/25 11:59:56;;;;;;;6.43;3.43;;;22.70;93.60;;;;;;5073768;28;20239;-74
2023/05/25 12:02:22;;;;;;;6.43;3.60;;;22.40;93.10;;;;;;5073720;28;20163;-73
2023/05/25 12:04:55;;;;;;;6.80;3.50;;;23.00;92.70;;;;;;5075133;28;20194;-73
2023/05/25 12:07:21;;;;;;;7.17;3.77;;;23.20;92.10;;;;;;5075014;28;20467;-74
2023/05/25 12:09:47;;;;;;;6.10;3.33;;;23.60;91.60;;;;;;5073616;28;20175;-74
2023/05/25 12:12:13;;;;;;;10.43;3.70;;;23.80;91.60;;;;;;5074695;28;20163;-73
2023/05/25 12:14:48;;;;;;;6.60;3.60;;;22.90;91.70;;;;;;5075063;28;20203;-75
2023/05/25 12:17:15;;;;;;;6.80;3.70;;;23.10;91.80;;;;;;5073614;28;20298;-75
2023/05/25 12:19:41;;;;;;;7.23;3.40;;;23.40;91.90;;;;;;5073523;28;20156;-75
2023/05/25 12:22:07;;;;;;;9.13;3.60;;;23.50;91.60;;;;;;5074965;28;20280;-75
2023/05/25 12:24:33;;;;;;;5.50;3.50;;;23.00;91.80;;;;;;5073821;28;20686;-75
2023/05/25 12:27:01;;;;;;;6.77;3.43;;;22.90;92.10;;;;;;5074653;28;20269;-74
2023/05/25 12:29:27;;;;;;;9.53;3.90;;;23.00;92.20;;;;;;5074850;28;20650;-74
2023/05/25 12:32:02;;;;;;;6.07;3.47;;;23.70;91.20;;;;;;5074874;28;20296;-74
2023/05/25 12:34:29;;;;;;;5.73;3.20;;;24.10;90.70;;;;;;5073464;28;20517;-74
2023/05/25 12:36:56;;;;;;;7.97;3.53;;;23.50;90.90;;;;;;5073212;28;20194;-74
2023/05/25 12:39:30;;;;;;;6.57;3.70;;;22.70;92.00;;;;;;5074673;28;20168;-74
2023/05/25 12:42:01;;;;;;;10.17;3.50;;;22.50;92.40;;;;;;5073216;28;20165;-74